sensor_id;sensor_type;location;lat;lon;timestamp;pressure;altitude;pressure_sealevel;temperature;humidity
18985;BME280;9626;52.552;13.436;2023-04-06T00:01:45;101500.28;;;3.93;90.09
18985;BME280;9626;52.552;13.436;2023-04-06T00:04:12;101492.47;;;3.94;89.99
18985;BME280;9626;52.552;13.436;2023-04-06T00:06:39;101495.13;;;3.96;89.83
18985;BME280;9626;52.552;13.436;2023-04-06T00:09:06;101494.16;;;3.92;89.63
18985;BME280;9626;52.552;13.436;2023-04-06T00:11:32;101496.72;;;3.87;89.40
18985;BME280;9626;52.552;13.436;2023-04-06T00:13:58;101487.94;;;3.87;90.79
18985;BME280;9626;52.552;13.436;2023-04-06T00:16:24;101493.19;;;3.87;90.23
18985;BME280;9626;52.552;13.436;2023-04-06T00:18:50;101490.50;;;3.84;90.90
18985;BME280;9626;52.552;13.436;2023-04-06T00:21:16;101486.91;;;3.79;90.99
18985;BME280;9626;52.552;13.436;2023-04-06T00:23:42;101479.16;;;3.83;90.97
18985;BME280;9626;52.552;13.436;2023-04-06T00:26:08;101479.03;;;3.77;91.40
18985;BME280;9626;52.552;13.436;2023-04-06T00:28:37;101484.22;;;3.76;91.41
18985;BME280;9626;52.552;13.436;2023-04-06T00:31:03;101483.28;;;3.73;91.85
18985;BME280;9626;52.552;13.436;2023-04-06T00:33:29;101477.22;;;3.75;91.23
18985;BME280;9626;52.552;13.436;2023-04-06T00:35:55;101480.59;;;3.69;90.40
18985;BME280;9626;52.552;13.436;2023-04-06T00:38:22;101477.09;;;3.68;91.48
18985;BME280;9626;52.552;13.436;2023-04-06T00:40:49;101478.00;;;3.70;91.29
18985;BME280;9626;52.552;13.436;2023-04-06T00:43:15;101472.78;;;3.72;91.16
18985;BME280;9626;52.552;13.436;2023-04-06T00:45:41;101471.97;;;3.75;90.26
18985;BME280;9626;52.552;13.436;2023-04-06T00:48:08;101476.38;;;3.76;90.42
18985;BME280;9626;52.552;13.436;2023-04-06T00:50:35;101473.72;;;3.74;88.07
18985;BME280;9626;52.552;13.436;2023-04-06T00:53:02;101471.13;;;3.76;88.27
18985;BME280;9626;52.552;13.436;2023-04-06T00:55:28;101477.13;;;3.70;86.98
18985;BME280;9626;52.552;13.436;2023-04-06T00:57:57;101477.00;;;3.65;88.77
18985;BME280;9626;52.552;13.436;2023-04-06T01:00:24;101468.28;;;3.65;88.92
18985;BME280;9626;52.552;13.436;2023-04-06T01:02:50;101464.81;;;3.66;89.18
18985;BME280;9626;52.552;13.436;2023-04-06T01:05:16;101469.94;;;3.61;89.95
18985;BME280;9626;52.552;13.436;2023-04-06T01:07:42;101469.00;;;3.58;90.58
18985;BME280;9626;52.552;13.436;2023-04-06T01:10:09;101467.41;;;3.64;89.16
18985;BME280;9626;52.552;13.436;2023-04-06T01:12:35;101471.88;;;3.68;89.71
18985;BME280;9626;52.552;13.436;2023-04-06T01:15:04;101466.53;;;3.65;89.50
18985;BME280;9626;52.552;13.436;2023-04-06T01:17:31;101466.50;;;3.64;90.48
18985;BME280;9626;52.552;13.436;2023-04-06T01:19:57;101463.88;;;3.64;89.77
18985;BME280;9626;52.552;13.436;2023-04-06T01:22:24;101463.03;;;3.65;89.56
18985;BME280;9626;52.552;13.436;2023-04-06T01:24:50;101461.28;;;3.64;90.23
18985;BME280;9626;52.552;13.436;2023-04-06T01:27:16;101469.09;;;3.62;89.32
18985;BME280;9626;52.552;13.436;2023-04-06T01:29:42;101465.56;;;3.60;89.02
18985;BME280;9626;52.552;13.436;2023-04-06T01:32:08;101468.16;;;3.59;89.37
18985;BME280;9626;52.552;13.436;2023-04-06T01:34:35;101463.75;;;3.56;89.24
18985;BME280;9626;52.552;13.436;2023-04-06T01:37:01;101459.41;;;3.58;89.04
18985;BME280;9626;52.552;13.436;2023-04-06T01:39:27;101468.03;;;3.52;88.59
18985;BME280;9626;52.552;13.436;2023-04-06T01:41:53;101470.63;;;3.51;90.10
18985;BME280;9626;52.552;13.436;2023-04-06T01:44:19;101471.41;;;3.47;91.69
18985;BME280;9626;52.552;13.436;2023-04-06T01:46:45;101473.00;;;3.40;92.40
18985;BME280;9626;52.552;13.436;2023-04-06T01:49:12;101467.75;;;3.40;93.14
18985;BME280;9626;52.552;13.436;2023-04-06T01:51:38;101470.34;;;3.38;90.30
18985;BME280;9626;52.552;13.436;2023-04-06T01:54:05;101472.19;;;3.43;92.44
18985;BME280;9626;52.552;13.436;2023-04-06T01:56:31;101465.88;;;3.34;93.06
18985;BME280;9626;52.552;13.436;2023-04-06T01:58:57;101463.84;;;3.21;94.47
18985;BME280;9626;52.552;13.436;2023-04-06T02:01:23;101461.28;;;3.24;96.06
18985;BME280;9626;52.552;13.436;2023-04-06T02:03:49;101468.28;;;3.25;95.76
18985;BME280;9626;52.552;13.436;2023-04-06T02:06:15;101463.88;;;3.22;96.51
18985;BME280;9626;52.552;13.436;2023-04-06T02:08:41;101466.44;;;3.21;95.76
18985;BME280;9626;52.552;13.436;2023-04-06T02:11:07;101464.63;;;3.17;96.69
18985;BME280;9626;52.552;13.436;2023-04-06T02:13:33;101463.75;;;3.16;96.68
18985;BME280;9626;52.552;13.436;2023-04-06T02:16:00;101463.63;;;3.12;96.51
18985;BME280;9626;52.552;13.436;2023-04-06T02:18:27;101462.88;;;3.17;96.20
18985;BME280;9626;52.552;13.436;2023-04-06T02:20:54;101467.34;;;3.23;96.14
18985;BME280;9626;52.552;13.436;2023-04-06T02:23:20;101469.06;;;3.21;95.81
18985;BME280;9626;52.552;13.436;2023-04-06T02:25:46;101460.16;;;3.13;96.65
18985;BME280;9626;52.552;13.436;2023-04-06T02:28:12;101464.69;;;3.20;97.36
18985;BME280;9626;52.552;13.436;2023-04-06T02:30:38;101462.72;;;3.10;97.40
18985;BME280;9626;52.552;13.436;2023-04-06T02:33:04;101468.66;;;3.04;97.14
18985;BME280;9626;52.552;13.436;2023-04-06T02:35:30;101467.84;;;3.07;98.09
18985;BME280;9626;52.552;13.436;2023-04-06T02:37:57;101466.00;;;3.02;97.14
18985;BME280;9626;52.552;13.436;2023-04-06T02:40:23;101469.44;;;3.00;96.68
18985;BME280;9626;52.552;13.436;2023-04-06T02:42:49;101464.25;;;3.01;97.09
18985;BME280;9626;52.552;13.436;2023-04-06T02:45:15;101467.66;;;2.97;97.52
18985;BME280;9626;52.552;13.436;2023-04-06T02:47:42;101472.00;;;2.97;97.85
18985;BME280;9626;52.552;13.436;2023-04-06T02:50:08;101460.72;;;2.99;97.32
18985;BME280;9626;52.552;13.436;2023-04-06T02:52:34;101464.97;;;2.96;97.47
18985;BME280;9626;52.552;13.436;2023-04-06T02:55:01;101463.81;;;2.83;98.20
18985;BME280;9626;52.552;13.436;2023-04-06T02:57:27;101465.34;;;2.75;100.00
18985;BME280;9626;52.552;13.436;2023-04-06T02:59:53;101465.28;;;2.72;100.00
18985;BME280;9626;52.552;13.436;2023-04-06T03:02:19;101467.69;;;2.64;100.00
18985;BME280;9626;52.552;13.436;2023-04-06T03:04:46;101474.50;;;2.57;100.00
18985;BME280;9626;52.552;13.436;2023-04-06T03:07:13;101477.56;;;2.41;100.00
18985;BME280;9626;52.552;13.436;2023-04-06T03:09:39;101473.34;;;2.46;100.00
18985;BME280;9626;52.552;13.436;2023-04-06T03:12:05;101475.75;;;2.38;100.00
18985;BME280;9626;52.552;13.436;2023-04-06T03:14:31;101475.78;;;2.40;100.00
18985;BME280;9626;52.552;13.436;2023-04-06T03:16:57;101479.94;;;2.31;100.00
18985;BME280;9626;52.552;13.436;2023-04-06T03:19:23;101481.78;;;2.35;100.00
18985;BME280;9626;52.552;13.436;2023-04-06T03:21:49;101475.53;;;2.30;100.00
18985;BME280;9626;52.552;13.436;2023-04-06T03:24:15;101475.69;;;2.35;100.00
18985;BME280;9626;52.552;13.436;2023-04-06T03:26:41;101478.25;;;2.33;100.00
18985;BME280;9626;52.552;13.436;2023-04-06T03:29:08;101474.44;;;2.22;100.00
18985;BME280;9626;52.552;13.436;2023-04-06T03:31:34;101477.84;;;2.19;100.00
18985;BME280;9626;52.552;13.436;2023-04-06T03:34:00;101474.84;;;2.04;100.00
18985;BME280;9626;52.552;13.436;2023-04-06T03:36:26;101477.41;;;2.02;100.00
18985;BME280;9626;52.552;13.436;2023-04-06T03:38:52;101485.31;;;2.06;100.00
18985;BME280;9626;52.552;13.436;2023-04-06T03:41:21;101489.91;;;2.13;100.00
18985;BME280;9626;52.552;13.436;2023-04-06T03:43:47;101486.34;;;2.11;100.00
18985;BME280;9626;52.552;13.436;2023-04-06T03:46:13;101496.97;;;2.17;100.00
18985;BME280;9626;52.552;13.436;2023-04-06T03:48:39;101489.19;;;2.18;100.00
18985;BME280;9626;52.552;13.436;2023-04-06T03:51:05;101491.59;;;2.12;100.00
18985;BME280;9626;52.552;13.436;2023-04-06T03:53:31;101489.56;;;2.00;100.00
18985;BME280;9626;52.552;13.436;2023-04-06T03:55:57;101488.38;;;1.91;100.00
18985;BME280;9626;52.552;13.436;2023-04-06T03:58:23;101497.75;;;1.84;100.00
18985;BME280;9626;52.552;13.436;2023-04-06T04:00:49;101504.78;;;1.85;100.00
18985;BME280;9626;52.552;13.436;2023-04-06T04:03:15;101503.84;;;1.83;100.00
18985;BME280;9626;52.552;13.436;2023-04-06T04:05:42;101504.69;;;1.82;100.00
18985;BME280;9626;52.552;13.436;2023-04-06T04:08:09;101515.06;;;1.79;100.00
18985;BME280;9626;52.552;13.436;2023-04-06T04:10:35;101507.31;;;1.82;100.00
18985;BME280;9626;52.552;13.436;2023-04-06T04:13:01;101512.66;;;1.86;100.00
18985;BME280;9626;52.552;13.436;2023-04-06T04:15:27;101515.13;;;1.82;100.00
18985;BME280;9626;52.552;13.436;2023-04-06T04:17:53;101516.91;;;1.83;100.00
18985;BME280;9626;52.552;13.436;2023-04-06T04:20:19;101513.22;;;1.76;100.00
18985;BME280;9626;52.552;13.436;2023-04-06T04:22:45;101514.69;;;1.66;100.00
18985;BME280;9626;52.552;13.436;2023-04-06T04:25:11;101514.78;;;1.69;100.00
18985;BME280;9626;52.552;13.436;2023-04-06T04:27:37;101511.41;;;1.74;100.00
18985;BME280;9626;52.552;13.436;2023-04-06T04:30:05;101516.81;;;1.80;100.00
18985;BME280;9626;52.552;13.436;2023-04-06T04:32:33;101514.09;;;1.77;100.00
18985;BME280;9626;52.552;13.436;2023-04-06T04:34:58;101518.41;;;1.75;100.00
18985;BME280;9626;52.552;13.436;2023-04-06T04:37:25;101521.03;;;1.75;100.00
18985;BME280;9626;52.552;13.436;2023-04-06T04:39:51;101518.84;;;1.60;100.00
18985;BME280;9626;52.552;13.436;2023-04-06T04:42:17;101512.00;;;1.65;100.00
18985;BME280;9626;52.552;13.436;2023-04-06T04:44:43;101516.34;;;1.64;100.00
18985;BME280;9626;52.552;13.436;2023-04-06T04:47:09;101519.00;;;1.66;100.00
18985;BME280;9626;52.552;13.436;2023-04-06T04:49:35;101513.56;;;1.58;100.00
18985;BME280;9626;52.552;13.436;2023-04-06T04:52:01;101516.06;;;1.55;100.00
18985;BME280;9626;52.552;13.436;2023-04-06T04:54:27;101516.84;;;1.52;100.00
18985;BME280;9626;52.552;13.436;2023-04-06T04:56:53;101519.25;;;1.45;100.00
18985;BME280;9626;52.552;13.436;2023-04-06T04:59:19;101522.03;;;1.51;100.00
18985;BME280;9626;52.552;13.436;2023-04-06T05:01:45;101519.25;;;1.45;100.00
18985;BME280;9626;52.552;13.436;2023-04-06T05:04:11;101527.81;;;1.41;100.00
18985;BME280;9626;52.552;13.436;2023-04-06T05:06:37;101519.34;;;1.48;100.00
18985;BME280;9626;52.552;13.436;2023-04-06T05:09:03;101524.66;;;1.51;100.00
18985;BME280;9626;52.552;13.436;2023-04-06T05:11:29;101521.41;;;1.58;100.00
18985;BME280;9626;52.552;13.436;2023-04-06T05:13:56;101527.59;;;1.62;100.00
18985;BME280;9626;52.552;13.436;2023-04-06T05:16:22;101526.50;;;1.55;100.00
18985;BME280;9626;52.552;13.436;2023-04-06T05:18:48;101525.63;;;1.55;100.00
18985;BME280;9626;52.552;13.436;2023-04-06T05:21:14;101528.09;;;1.50;100.00
18985;BME280;9626;52.552;13.436;2023-04-06T05:23:40;101525.75;;;1.59;100.00
18985;BME280;9626;52.552;13.436;2023-04-06T05:26:07;101528.16;;;1.51;100.00
18985;BME280;9626;52.552;13.436;2023-04-06T05:28:33;101528.09;;;1.50;100.00
18985;BME280;9626;52.552;13.436;2023-04-06T05:31:00;101529.03;;;1.52;100.00
18985;BME280;9626;52.552;13.436;2023-04-06T05:33:26;101529.81;;;1.49;100.00
18985;BME280;9626;52.552;13.436;2023-04-06T05:35:52;101545.03;;;1.63;100.00
18985;BME280;9626;52.552;13.436;2023-04-06T05:38:18;101543.50;;;1.69;100.00
18985;BME280;9626;52.552;13.436;2023-04-06T05:40:44;101538.34;;;1.73;100.00
18985;BME280;9626;52.552;13.436;2023-04-06T05:43:10;101536.59;;;1.72;100.00
18985;BME280;9626;52.552;13.436;2023-04-06T05:45:36;101542.00;;;1.78;100.00
18985;BME280;9626;52.552;13.436;2023-04-06T05:48:02;101549.03;;;1.80;100.00
18985;BME280;9626;52.552;13.436;2023-04-06T05:50:28;101542.38;;;1.90;100.00
18985;BME280;9626;52.552;13.436;2023-04-06T05:52:55;101540.66;;;1.92;100.00
18985;BME280;9626;52.552;13.436;2023-04-06T05:55:21;101534.97;;;2.06;100.00
18985;BME280;9626;52.552;13.436;2023-04-06T05:57:47;101535.31;;;2.18;100.00
18985;BME280;9626;52.552;13.436;2023-04-06T06:00:13;101540.66;;;2.21;100.00
18985;BME280;9626;52.552;13.436;2023-04-06T06:02:40;101538.16;;;2.26;100.00
18985;BME280;9626;52.552;13.436;2023-04-06T06:05:08;101547.81;;;2.28;100.00
18985;BME280;9626;52.552;13.436;2023-04-06T06:07:36;101549.66;;;2.32;100.00
18985;BME280;9626;52.552;13.436;2023-04-06T06:10:03;101546.28;;;2.36;100.00
18985;BME280;9626;52.552;13.436;2023-04-06T06:12:29;101548.16;;;2.41;100.00
18985;BME280;9626;52.552;13.436;2023-04-06T06:14:55;101548.44;;;2.51;100.00
18985;BME280;9626;52.552;13.436;2023-04-06T06:17:21;101545.28;;;2.63;100.00
18985;BME280;9626;52.552;13.436;2023-04-06T06:19:47;101547.19;;;2.70;100.00
18985;BME280;9626;52.552;13.436;2023-04-06T06:22:13;101549.13;;;2.78;100.00
18985;BME280;9626;52.552;13.436;2023-04-06T06:24:39;101549.19;;;2.81;100.00
18985;BME280;9626;52.552;13.436;2023-04-06T06:27:05;101552.94;;;2.89;100.00
18985;BME280;9626;52.552;13.436;2023-04-06T06:29:33;101550.38;;;2.92;100.00
18985;BME280;9626;52.552;13.436;2023-04-06T06:31:59;101559.28;;;2.99;100.00
18985;BME280;9626;52.552;13.436;2023-04-06T06:34:26;101548.00;;;3.01;100.00
18985;BME280;9626;52.552;13.436;2023-04-06T06:36:52;101554.31;;;3.10;100.00
18985;BME280;9626;52.552;13.436;2023-04-06T06:39:21;101555.38;;;3.18;100.00
18985;BME280;9626;52.552;13.436;2023-04-06T06:41:48;101552.81;;;3.19;100.00
18985;BME280;9626;52.552;13.436;2023-04-06T06:44:14;101553.75;;;3.23;100.00
18985;BME280;9626;52.552;13.436;2023-04-06T06:46:40;101553.13;;;3.33;100.00
18985;BME280;9626;52.552;13.436;2023-04-06T06:49:07;101553.31;;;3.41;100.00
18985;BME280;9626;52.552;13.436;2023-04-06T06:51:33;101552.59;;;3.48;100.00
18985;BME280;9626;52.552;13.436;2023-04-06T06:54:00;101548.38;;;3.53;100.00
18985;BME280;9626;52.552;13.436;2023-04-06T06:56:26;101552.00;;;3.60;100.00
18985;BME280;9626;52.552;13.436;2023-04-06T06:58:53;101554.97;;;3.76;100.00
18985;BME280;9626;52.552;13.436;2023-04-06T07:01:19;101555.16;;;3.85;100.00
18985;BME280;9626;52.552;13.436;2023-04-06T07:03:46;101553.72;;;3.99;100.00
18985;BME280;9626;52.552;13.436;2023-04-06T07:06:12;101551.25;;;4.05;99.21
18985;BME280;9626;52.552;13.436;2023-04-06T07:08:38;101558.31;;;4.10;96.35
18985;BME280;9626;52.552;13.436;2023-04-06T07:11:04;101555.94;;;4.22;93.11
18985;BME280;9626;52.552;13.436;2023-04-06T07:13:31;101552.59;;;4.31;93.70
18985;BME280;9626;52.552;13.436;2023-04-06T07:15:57;101558.63;;;4.27;93.03
18985;BME280;9626;52.552;13.436;2023-04-06T07:18:23;101557.97;;;4.35;89.91
18985;BME280;9626;52.552;13.436;2023-04-06T07:20:49;101554.69;;;4.47;88.97
18985;BME280;9626;52.552;13.436;2023-04-06T07:23:15;101559.09;;;4.50;85.75
18985;BME280;9626;52.552;13.436;2023-04-06T07:25:41;101553.13;;;4.57;84.49
18985;BME280;9626;52.552;13.436;2023-04-06T07:28:07;101554.03;;;4.59;83.53
18985;BME280;9626;52.552;13.436;2023-04-06T07:30:34;101549.81;;;4.67;82.74
18985;BME280;9626;52.552;13.436;2023-04-06T07:33:00;101561.19;;;4.68;82.81
18985;BME280;9626;52.552;13.436;2023-04-06T07:35:27;101555.28;;;4.80;81.68
18985;BME280;9626;52.552;13.436;2023-04-06T07:37:54;101559.00;;;4.91;78.89
18985;BME280;9626;52.552;13.436;2023-04-06T07:40:20;101553.97;;;5.03;78.00
18985;BME280;9626;52.552;13.436;2023-04-06T07:42:46;101544.66;;;5.24;76.22
18985;BME280;9626;52.552;13.436;2023-04-06T07:45:12;101550.94;;;5.34;74.43
18985;BME280;9626;52.552;13.436;2023-04-06T07:47:38;101556.56;;;5.60;72.99
18985;BME280;9626;52.552;13.436;2023-04-06T07:50:05;101552.81;;;6.02;68.88
18985;BME280;9626;52.552;13.436;2023-04-06T07:52:31;101555.78;;;6.30;66.50
18985;BME280;9626;52.552;13.436;2023-04-06T07:55:00;101554.34;;;6.58;63.05
18985;BME280;9626;52.552;13.436;2023-04-06T07:57:26;101551.75;;;6.62;60.92
18985;BME280;9626;52.552;13.436;2023-04-06T07:59:52;101557.47;;;7.11;59.62
18985;BME280;9626;52.552;13.436;2023-04-06T08:02:18;101558.44;;;7.22;56.79
18985;BME280;9626;52.552;13.436;2023-04-06T08:04:44;101562.06;;;7.32;56.68
18985;BME280;9626;52.552;13.436;2023-04-06T08:07:11;101555.16;;;7.53;54.35
18985;BME280;9626;52.552;13.436;2023-04-06T08:09:37;101555.94;;;7.38;54.68
18985;BME280;9626;52.552;13.436;2023-04-06T08:12:03;101553.31;;;7.36;54.23
18985;BME280;9626;52.552;13.436;2023-04-06T08:14:30;101563.09;;;7.62;53.89
18985;BME280;9626;52.552;13.436;2023-04-06T08:16:56;101557.16;;;8.00;52.94
18985;BME280;9626;52.552;13.436;2023-04-06T08:19:22;101559.84;;;8.06;51.96
18985;BME280;9626;52.552;13.436;2023-04-06T08:21:51;101560.84;;;8.33;51.92
18985;BME280;9626;52.552;13.436;2023-04-06T08:24:17;101555.66;;;8.52;50.21
18985;BME280;9626;52.552;13.436;2023-04-06T08:26:43;101562.69;;;8.51;49.66
18985;BME280;9626;52.552;13.436;2023-04-06T08:29:09;101558.34;;;8.67;47.43
18985;BME280;9626;52.552;13.436;2023-04-06T08:31:35;101553.97;;;8.75;47.55
18985;BME280;9626;52.552;13.436;2023-04-06T08:34:03;101551.31;;;8.82;46.90
18985;BME280;9626;52.552;13.436;2023-04-06T08:36:30;101557.50;;;8.94;47.07
18985;BME280;9626;52.552;13.436;2023-04-06T08:38:56;101549.59;;;9.18;46.12
18985;BME280;9626;52.552;13.436;2023-04-06T08:41:23;101553.97;;;9.06;45.90
18985;BME280;9626;52.552;13.436;2023-04-06T08:44:01;101551.31;;;9.42;45.83
18985;BME280;9626;52.552;13.436;2023-04-06T08:46:29;101552.19;;;9.16;44.70
18985;BME280;9626;52.552;13.436;2023-04-06T08:49:01;101554.00;;;9.22;45.21
18985;BME280;9626;52.552;13.436;2023-04-06T08:51:29;101553.97;;;9.45;44.00
18985;BME280;9626;52.552;13.436;2023-04-06T08:53:58;101553.84;;;9.96;43.73
18985;BME280;9626;52.552;13.436;2023-04-06T08:56:25;101560.84;;;10.09;43.21
18985;BME280;9626;52.552;13.436;2023-04-06T08:58:53;101545.72;;;10.42;41.98
18985;BME280;9626;52.552;13.436;2023-04-06T09:01:39;101558.16;;;10.15;39.84
18985;BME280;9626;52.552;13.436;2023-04-06T09:04:07;101547.44;;;10.56;39.38
18985;BME280;9626;52.552;13.436;2023-04-06T09:06:37;101550.09;;;10.49;40.38
18985;BME280;9626;52.552;13.436;2023-04-06T09:09:03;101560.81;;;10.22;41.34
18985;BME280;9626;52.552;13.436;2023-04-06T09:14:09;101555.09;;;10.96;40.14
18985;BME280;9626;52.552;13.436;2023-04-06T09:16:40;101550.44;;;11.24;39.79
18985;BME280;9626;52.552;13.436;2023-04-06T09:19:13;101548.59;;;11.37;38.63
18985;BME280;9626;52.552;13.436;2023-04-06T09:21:39;101547.44;;;11.61;38.37
18985;BME280;9626;52.552;13.436;2023-04-06T09:24:08;101538.38;;;11.84;37.94
18985;BME280;9626;52.552;13.436;2023-04-06T09:26:45;101541.13;;;12.49;36.47
18985;BME280;9626;52.552;13.436;2023-04-06T09:29:22;101537.72;;;11.63;36.18
18985;BME280;9626;52.552;13.436;2023-04-06T09:31:49;101546.06;;;11.20;36.75
18985;BME280;9626;52.552;13.436;2023-04-06T09:34:22;101541.75;;;11.07;38.17
18985;BME280;9626;52.552;13.436;2023-04-06T09:36:49;101539.19;;;10.96;39.46
18985;BME280;9626;52.552;13.436;2023-04-06T09:39:15;101538.03;;;11.29;38.68
18985;BME280;9626;52.552;13.436;2023-04-06T09:41:41;101534.75;;;11.96;37.77
18985;BME280;9626;52.552;13.436;2023-04-06T09:44:09;101529.16;;;12.17;37.85
18985;BME280;9626;52.552;13.436;2023-04-06T09:46:37;101521.81;;;12.38;36.71
18985;BME280;9626;52.552;13.436;2023-04-06T09:49:06;101529.78;;;11.62;36.97
18985;BME280;9626;52.552;13.436;2023-04-06T09:51:56;101521.06;;;11.47;37.87
18985;BME280;9626;52.552;13.436;2023-04-06T09:54:23;101516.22;;;11.87;37.53
18985;BME280;9626;52.552;13.436;2023-04-06T09:56:58;101517.56;;;11.42;38.54
18985;BME280;9626;52.552;13.436;2023-04-06T10:02:34;101512.78;;;10.87;39.99
18985;BME280;9626;52.552;13.436;2023-04-06T10:05:09;101504.19;;;12.29;36.87
18985;BME280;9626;52.552;13.436;2023-04-06T10:07:39;101506.84;;;12.90;34.81
18985;BME280;9626;52.552;13.436;2023-04-06T10:10:06;101503.22;;;11.65;36.48
18985;BME280;9626;52.552;13.436;2023-04-06T10:12:34;101506.41;;;11.93;34.90
18985;BME280;9626;52.552;13.436;2023-04-06T10:15:00;101518.50;;;11.41;35.60
18985;BME280;9626;52.552;13.436;2023-04-06T10:17:26;101516.38;;;11.74;34.93
18985;BME280;9626;52.552;13.436;2023-04-06T10:19:58;101512.66;;;12.58;34.62
18985;BME280;9626;52.552;13.436;2023-04-06T10:22:35;101515.34;;;11.88;35.12
18985;BME280;9626;52.552;13.436;2023-04-06T10:25:04;101511.03;;;10.86;35.75
18985;BME280;9626;52.552;13.436;2023-04-06T10:27:32;101506.47;;;11.05;36.44
18985;BME280;9626;52.552;13.436;2023-04-06T10:30:04;101511.50;;;12.12;34.59
18985;BME280;9626;52.552;13.436;2023-04-06T10:32:35;101512.47;;;12.06;32.59
18985;BME280;9626;52.552;13.436;2023-04-06T10:35:14;101510.19;;;10.80;34.24
18985;BME280;9626;52.552;13.436;2023-04-06T10:38:00;101505.28;;;11.35;35.25
18985;BME280;9626;52.552;13.436;2023-04-06T10:40:27;101502.44;;;12.30;34.06
18985;BME280;9626;52.552;13.436;2023-04-06T10:43:10;101509.59;;;12.25;34.05
18985;BME280;9626;52.552;13.436;2023-04-06T10:45:36;101507.94;;;12.77;33.47
18985;BME280;9626;52.552;13.436;2023-04-06T10:48:18;101505.19;;;13.36;31.84
18985;BME280;9626;52.552;13.436;2023-04-06T10:50:52;101510.69;;;13.25;31.48
18985;BME280;9626;52.552;13.436;2023-04-06T10:53:24;101502.41;;;12.91;32.41
18985;BME280;9626;52.552;13.436;2023-04-06T10:55:52;101497.94;;;12.37;33.27
18985;BME280;9626;52.552;13.436;2023-04-06T10:58:18;101496.88;;;11.78;33.95
18985;BME280;9626;52.552;13.436;2023-04-06T11:00:46;101499.13;;;11.30;35.33
18985;BME280;9626;52.552;13.436;2023-04-06T11:03:13;101494.94;;;11.04;35.90
18985;BME280;9626;52.552;13.436;2023-04-06T11:05:49;101486.69;;;11.38;36.00
18985;BME280;9626;52.552;13.436;2023-04-06T11:08:25;101488.81;;;13.09;33.77
18985;BME280;9626;52.552;13.436;2023-04-06T11:10:52;101495.53;;;14.21;31.60
18985;BME280;9626;52.552;13.436;2023-04-06T11:13:20;101487.53;;;13.30;29.82
18985;BME280;9626;52.552;13.436;2023-04-06T11:15:46;101484.69;;;14.29;29.73
18985;BME280;9626;52.552;13.436;2023-04-06T11:18:17;101486.03;;;14.48;28.87
18985;BME280;9626;52.552;13.436;2023-04-06T11:20:47;101483.19;;;14.94;28.30
18985;BME280;9626;52.552;13.436;2023-04-06T11:23:22;101486.63;;;14.60;28.60
18985;BME280;9626;52.552;13.436;2023-04-06T11:25:52;101485.31;;;15.48;27.52
18985;BME280;9626;52.552;13.436;2023-04-06T11:28:19;101479.09;;;16.11;27.04
18985;BME280;9626;52.552;13.436;2023-04-06T11:30:46;101481.44;;;15.92;28.68
18985;BME280;9626;52.552;13.436;2023-04-06T11:33:20;101462.38;;;16.04;27.94
18985;BME280;9626;52.552;13.436;2023-04-06T11:35:48;101469.22;;;15.18;28.93
18985;BME280;9626;52.552;13.436;2023-04-06T11:38:14;101468.25;;;14.10;30.17
18985;BME280;9626;52.552;13.436;2023-04-06T11:40:41;101463.00;;;13.63;30.48
18985;BME280;9626;52.552;13.436;2023-04-06T11:43:11;101460.78;;;13.40;30.29
18985;BME280;9626;52.552;13.436;2023-04-06T11:45:43;101461.44;;;13.52;31.28
18985;BME280;9626;52.552;13.436;2023-04-06T11:48:18;101466.53;;;14.84;30.31
18985;BME280;9626;52.552;13.436;2023-04-06T11:50:48;101463.19;;;15.76;28.94
18985;BME280;9626;52.552;13.436;2023-04-06T11:53:14;101461.66;;;15.99;28.42
18985;BME280;9626;52.552;13.436;2023-04-06T11:55:41;101458.72;;;15.77;27.79
18985;BME280;9626;52.552;13.436;2023-04-06T11:58:10;101452.66;;;14.69;28.86
18985;BME280;9626;52.552;13.436;2023-04-06T12:00:36;101448.75;;;15.19;28.56
18985;BME280;9626;52.552;13.436;2023-04-06T12:03:03;101445.88;;;15.89;27.72
18985;BME280;9626;52.552;13.436;2023-04-06T12:05:29;101438.91;;;15.85;27.94
18985;BME280;9626;52.552;13.436;2023-04-06T12:07:55;101449.09;;;15.40;29.02
18985;BME280;9626;52.552;13.436;2023-04-06T12:10:22;101446.94;;;13.69;29.58
18985;BME280;9626;52.552;13.436;2023-04-06T12:12:48;101448.66;;;13.72;30.66
18985;BME280;9626;52.552;13.436;2023-04-06T12:15:14;101447.22;;;14.36;30.24
18985;BME280;9626;52.552;13.436;2023-04-06T12:17:40;101454.63;;;13.39;31.27
18985;BME280;9626;52.552;13.436;2023-04-06T12:20:06;101445.41;;;12.56;32.46
18985;BME280;9626;52.552;13.436;2023-04-06T12:22:32;101444.09;;;12.24;33.45
18985;BME280;9626;52.552;13.436;2023-04-06T12:24:59;101442.31;;;12.26;33.84
18985;BME280;9626;52.552;13.436;2023-04-06T12:27:25;101448.16;;;13.52;32.07
18985;BME280;9626;52.552;13.436;2023-04-06T12:29:51;101448.63;;;13.73;32.08
18985;BME280;9626;52.552;13.436;2023-04-06T12:32:17;101441.34;;;14.60;31.20
18985;BME280;9626;52.552;13.436;2023-04-06T12:34:43;101436.03;;;15.29;30.08
18985;BME280;9626;52.552;13.436;2023-04-06T12:37:10;101435.94;;;14.63;30.23
18985;BME280;9626;52.552;13.436;2023-04-06T12:39:36;101439.53;;;15.31;29.39
18985;BME280;9626;52.552;13.436;2023-04-06T12:42:02;101432.75;;;16.40;28.52
18985;BME280;9626;52.552;13.436;2023-04-06T12:44:28;101430.53;;;16.26;28.29
18985;BME280;9626;52.552;13.436;2023-04-06T12:46:55;101433.56;;;16.70;27.59
18985;BME280;9626;52.552;13.436;2023-04-06T12:49:21;101420.97;;;16.47;27.88
18985;BME280;9626;52.552;13.436;2023-04-06T12:51:47;101420.22;;;17.22;27.21
18985;BME280;9626;52.552;13.436;2023-04-06T12:54:14;101419.78;;;16.56;27.90
18985;BME280;9626;52.552;13.436;2023-04-06T12:56:40;101418.53;;;16.95;27.32
18985;BME280;9626;52.552;13.436;2023-04-06T12:59:06;101417.16;;;17.33;26.78